sensor_id;sensor_type;location;lat;lon;timestamp;P1;durP1;ratioP1;P2;durP2;ratioP2
21488;SDS011;10906;45.194;5.684;2023-04-25T05:01:11;10.00;;;3.55;;
21488;SDS011;10906;45.194;5.684;2023-04-25T05:03:56;8.15;;;2.88;;
21488;SDS011;10906;45.194;5.684;2023-04-25T05:06:44;7.93;;;3.08;;
21488;SDS011;10906;45.194;5.684;2023-04-25T05:09:49;7.30;;;3.38;;
21488;SDS011;10906;45.194;5.684;2023-04-25T06:09:33;15.07;;;3.38;;
21488;SDS011;10906;45.194;5.684;2023-04-25T06:12:18;15.07;;;4.05;;
21488;SDS011;10906;45.194;5.684;2023-04-25T06:15:03;9.95;;;3.65;;
21488;SDS011;10906;45.194;5.684;2023-04-25T06:17:48;11.70;;;3.72;;
21488;SDS011;10906;45.194;5.684;2023-04-25T06:20:33;12.32;;;3.65;;
21488;SDS011;10906;45.194;5.684;2023-04-25T06:23:17;12.15;;;4.57;;
21488;SDS011;10906;45.194;5.684;2023-04-25T06:26:01;14.57;;;4.22;;
21488;SDS011;10906;45.194;5.684;2023-04-25T06:28:48;13.75;;;4.15;;
21488;SDS011;10906;45.194;5.684;2023-04-25T06:31:32;8.43;;;3.47;;
21488;SDS011;10906;45.194;5.684;2023-04-25T06:34:34;11.27;;;3.85;;
21488;SDS011;10906;45.194;5.684;2023-04-25T07:35:27;13.80;;;4.00;;
21488;SDS011;10906;45.194;5.684;2023-04-25T07:39:02;11.32;;;4.22;;
21488;SDS011;10906;45.194;5.684;2023-04-25T07:51:27;9.20;;;3.75;;
21488;SDS011;10906;45.194;5.684;2023-04-25T16:32:21;4.22;;;1.73;;
21488;SDS011;10906;45.194;5.684;2023-04-25T16:44:12;9.13;;;1.83;;
21488;SDS011;10906;45.194;5.684;2023-04-25T16:46:56;5.65;;;1.63;;
21488;SDS011;10906;45.194;5.684;2023-04-25T16:49:44;5.15;;;1.52;;
21488;SDS011;10906;45.194;5.684;2023-04-25T16:52:29;4.55;;;1.75;;
21488;SDS011;10906;45.194;5.684;2023-04-25T16:55:15;5.80;;;1.80;;
21488;SDS011;10906;45.194;5.684;2023-04-25T16:58:00;5.65;;;2.00;;
21488;SDS011;10906;45.194;5.684;2023-04-25T17:00:45;5.03;;;2.00;;
21488;SDS011;10906;45.194;5.684;2023-04-25T17:03:30;4.57;;;1.88;;
21488;SDS011;10906;45.194;5.684;2023-04-25T17:06:14;7.70;;;1.77;;
21488;SDS011;10906;45.194;5.684;2023-04-25T17:09:00;5.72;;;2.67;;
21488;SDS011;10906;45.194;5.684;2023-04-25T17:11:45;5.80;;;1.73;;
21488;SDS011;10906;45.194;5.684;2023-04-25T17:14:33;4.35;;;3.17;;
21488;SDS011;10906;45.194;5.684;2023-04-25T17:17:45;11.93;;;8.80;;
21488;SDS011;10906;45.194;5.684;2023-04-25T17:20:30;11.45;;;9.63;;
21488;SDS011;10906;45.194;5.684;2023-04-25T17:23:15;22.88;;;18.90;;
21488;SDS011;10906;45.194;5.684;2023-04-25T17:26:01;23.23;;;11.13;;
21488;SDS011;10906;45.194;5.684;2023-04-25T17:38:30;7.53;;;2.72;;
21488;SDS011;10906;45.194;5.684;2023-04-25T17:41:40;3.20;;;1.95;;
21488;SDS011;10906;45.194;5.684;2023-04-25T17:44:40;2.90;;;1.73;;
21488;SDS011;10906;45.194;5.684;2023-04-25T17:47:42;4.50;;;2.63;;
21488;SDS011;10906;45.194;5.684;2023-04-25T17:50:49;7.93;;;5.25;;
21488;SDS011;10906;45.194;5.684;2023-04-25T17:54:23;8.95;;;6.95;;
21488;SDS011;10906;45.194;5.684;2023-04-25T17:57:36;7.93;;;7.05;;
21488;SDS011;10906;45.194;5.684;2023-04-25T18:00:53;10.45;;;8.65;;
21488;SDS011;10906;45.194;5.684;2023-04-25T18:03:53;6.10;;;2.60;;
21488;SDS011;10906;45.194;5.684;2023-04-25T18:06:41;5.38;;;2.10;;
21488;SDS011;10906;45.194;5.684;2023-04-25T18:09:35;4.78;;;1.90;;
21488;SDS011;10906;45.194;5.684;2023-04-25T18:12:22;8.73;;;2.13;;
21488;SDS011;10906;45.194;5.684;2023-04-25T18:15:07;4.25;;;1.77;;
21488;SDS011;10906;45.194;5.684;2023-04-25T18:17:52;2.38;;;1.58;;
21488;SDS011;10906;45.194;5.684;2023-04-25T18:20:36;5.57;;;1.88;;
21488;SDS011;10906;45.194;5.684;2023-04-25T18:23:21;2.70;;;1.50;;
21488;SDS011;10906;45.194;5.684;2023-04-25T18:26:06;7.03;;;1.73;;
21488;SDS011;10906;45.194;5.684;2023-04-25T18:28:50;5.97;;;1.90;;
21488;SDS011;10906;45.194;5.684;2023-04-25T18:34:19;4.65;;;2.05;;
21488;SDS011;10906;45.194;5.684;2023-04-25T18:37:04;3.47;;;1.83;;
21488;SDS011;10906;45.194;5.684;2023-04-25T18:39:49;2.85;;;1.90;;
21488;SDS011;10906;45.194;5.684;2023-04-25T18:42:34;4.28;;;2.28;;
21488;SDS011;10906;45.194;5.684;2023-04-25T18:45:20;5.40;;;1.98;;
21488;SDS011;10906;45.194;5.684;2023-04-25T18:48:04;3.60;;;1.50;;
21488;SDS011;10906;45.194;5.684;2023-04-25T18:50:49;5.20;;;1.70;;
21488;SDS011;10906;45.194;5.684;2023-04-25T18:53:34;3.50;;;1.60;;
21488;SDS011;10906;45.194;5.684;2023-04-25T18:56:19;4.25;;;1.52;;
21488;SDS011;10906;45.194;5.684;2023-04-25T18:59:05;3.55;;;1.35;;
21488;SDS011;10906;45.194;5.684;2023-04-25T19:01:50;4.18;;;1.70;;
21488;SDS011;10906;45.194;5.684;2023-04-25T19:04:36;4.00;;;1.40;;
21488;SDS011;10906;45.194;5.684;2023-04-25T19:07:21;3.53;;;1.65;;
21488;SDS011;10906;45.194;5.684;2023-04-25T19:10:06;4.60;;;1.85;;
21488;SDS011;10906;45.194;5.684;2023-04-25T19:12:51;4.57;;;1.95;;
21488;SDS011;10906;45.194;5.684;2023-04-25T19:15:35;4.32;;;2.03;;
21488;SDS011;10906;45.194;5.684;2023-04-25T19:18:20;4.75;;;1.73;;
21488;SDS011;10906;45.194;5.684;2023-04-25T19:21:05;5.60;;;1.70;;
21488;SDS011;10906;45.194;5.684;2023-04-25T19:23:51;3.72;;;1.88;;
21488;SDS011;10906;45.194;5.684;2023-04-25T19:26:36;4.68;;;1.83;;
21488;SDS011;10906;45.194;5.684;2023-04-25T19:29:21;2.63;;;1.52;;
21488;SDS011;10906;45.194;5.684;2023-04-25T19:32:05;4.55;;;1.50;;
21488;SDS011;10906;45.194;5.684;2023-04-25T19:34:50;4.53;;;1.58;;
21488;SDS011;10906;45.194;5.684;2023-04-25T19:37:35;5.57;;;1.80;;
21488;SDS011;10906;45.194;5.684;2023-04-25T19:40:20;8.32;;;1.98;;
21488;SDS011;10906;45.194;5.684;2023-04-25T19:43:05;5.55;;;1.88;;
21488;SDS011;10906;45.194;5.684;2023-04-25T19:45:50;3.35;;;2.15;;
21488;SDS011;10906;45.194;5.684;2023-04-25T19:48:37;3.42;;;2.08;;
21488;SDS011;10906;45.194;5.684;2023-04-25T19:51:24;6.47;;;2.42;;
21488;SDS011;10906;45.194;5.684;2023-04-25T19:54:11;3.55;;;2.15;;
21488;SDS011;10906;45.194;5.684;2023-04-25T19:56:56;3.85;;;2.25;;
21488;SDS011;10906;45.194;5.684;2023-04-25T19:59:41;4.28;;;1.90;;
21488;SDS011;10906;45.194;5.684;2023-04-25T20:02:30;4.15;;;1.60;;
21488;SDS011;10906;45.194;5.684;2023-04-25T20:05:15;4.00;;;1.77;;
21488;SDS011;10906;45.194;5.684;2023-04-25T20:08:00;3.72;;;2.15;;
21488;SDS011;10906;45.194;5.684;2023-04-25T20:10:45;4.47;;;2.10;;
21488;SDS011;10906;45.194;5.684;2023-04-25T20:13:30;4.88;;;2.13;;
21488;SDS011;10906;45.194;5.684;2023-04-25T20:16:15;2.50;;;1.80;;
21488;SDS011;10906;45.194;5.684;2023-04-25T20:19:02;6.07;;;2.47;;
21488;SDS011;10906;45.194;5.684;2023-04-25T20:21:48;4.22;;;2.00;;
21488;SDS011;10906;45.194;5.684;2023-04-25T20:24:33;4.35;;;1.85;;
21488;SDS011;10906;45.194;5.684;2023-04-25T20:27:17;4.78;;;1.92;;
21488;SDS011;10906;45.194;5.684;2023-04-25T20:30:02;8.23;;;2.30;;
21488;SDS011;10906;45.194;5.684;2023-04-25T20:32:50;5.28;;;1.90;;
21488;SDS011;10906;45.194;5.684;2023-04-25T20:35:35;5.15;;;2.30;;
21488;SDS011;10906;45.194;5.684;2023-04-25T20:38:20;3.83;;;1.83;;
21488;SDS011;10906;45.194;5.684;2023-04-25T20:41:04;5.28;;;2.22;;
21488;SDS011;10906;45.194;5.684;2023-04-25T20:43:49;7.80;;;2.25;;
21488;SDS011;10906;45.194;5.684;2023-04-25T20:46:36;6.93;;;2.55;;
21488;SDS011;10906;45.194;5.684;2023-04-25T20:49:21;3.33;;;2.03;;
21488;SDS011;10906;45.194;5.684;2023-04-25T20:52:05;5.45;;;1.83;;
21488;SDS011;10906;45.194;5.684;2023-04-25T20:54:50;4.18;;;1.90;;
21488;SDS011;10906;45.194;5.684;2023-04-25T20:57:37;4.10;;;2.05;;
21488;SDS011;10906;45.194;5.684;2023-04-25T21:00:22;6.70;;;2.50;;
21488;SDS011;10906;45.194;5.684;2023-04-25T21:03:11;4.97;;;2.10;;
21488;SDS011;10906;45.194;5.684;2023-04-25T21:05:56;5.15;;;2.03;;
21488;SDS011;10906;45.194;5.684;2023-04-25T21:08:41;5.60;;;2.47;;
21488;SDS011;10906;45.194;5.684;2023-04-25T21:11:26;4.10;;;2.25;;
21488;SDS011;10906;45.194;5.684;2023-04-25T21:14:10;4.15;;;2.20;;
21488;SDS011;10906;45.194;5.684;2023-04-25T21:16:54;3.92;;;1.90;;
21488;SDS011;10906;45.194;5.684;2023-04-25T21:19:39;4.82;;;1.90;;
21488;SDS011;10906;45.194;5.684;2023-04-25T21:22:24;5.88;;;2.10;;
21488;SDS011;10906;45.194;5.684;2023-04-25T21:25:08;4.55;;;2.08;;
21488;SDS011;10906;45.194;5.684;2023-04-25T21:27:53;6.03;;;2.42;;
21488;SDS011;10906;45.194;5.684;2023-04-25T21:33:22;7.65;;;1.90;;
21488;SDS011;10906;45.194;5.684;2023-04-25T21:36:06;4.70;;;2.00;;
21488;SDS011;10906;45.194;5.684;2023-04-25T21:38:51;6.00;;;1.98;;
21488;SDS011;10906;45.194;5.684;2023-04-25T21:41:35;4.13;;;2.00;;
21488;SDS011;10906;45.194;5.684;2023-04-25T21:44:20;5.68;;;2.10;;
21488;SDS011;10906;45.194;5.684;2023-04-25T21:47:05;4.15;;;1.88;;
21488;SDS011;10906;45.194;5.684;2023-04-25T21:49:49;5.72;;;2.40;;
21488;SDS011;10906;45.194;5.684;2023-04-25T21:52:34;9.05;;;2.30;;
21488;SDS011;10906;45.194;5.684;2023-04-25T21:55:19;6.60;;;2.50;;
21488;SDS011;10906;45.194;5.684;2023-04-25T21:58:05;6.13;;;2.90;;
